Ocala, Florida
Current Conditions -  °F | °C
As of 12:50 PM on Thursday 30 Oct 2014 (Local Time) from KOCF Reporting Station
Broken Clouds Broken Clouds  
Wind Chill: 75°   Ceiling: 6000
Heat Index: 75°   Visibility: 10mi
Dew Point: 64°   Wind: 0mph
Humidity: 69%   Direction: NA
Pressure: 29.98"   Gusts: NA
Location:  29.19°N, 82.19°W
Report Text: KOCF 301650Z 00000KT 10SM SCT020 BKN060 24/18 A2998
Loading
Personal Weather Stations






























Interactive Weather Map New forecast layout! Learn more

10-Day Weather Forecast

Advertisements
Track Severe Weather on mobile